Time;durP1;ratioP1;P1;durP2;ratioP2;P2;SDS_P1;SDS_P2;PMS_P1;PMS_P2;Temp;Humidity;BMP_temperature;BMP_pressure;BME280_temperature;BME280_humidity;BME280_pressure;Samples;Min_cycle;Max_cycle;Signal;HPM_P1;HPM_P2
2023/09/28 00:01:56;;;;;;;9.98;9.07;;;;;;;;;;6258221;28;20299;-70
2023/09/28 00:05:00;;;;;;;16.50;10.80;;;;;;;;;;6257895;28;20292;-71
2023/09/28 00:08:04;;;;;;;13.32;9.82;;;;;;;;;;6257404;28;20303;-70
2023/09/28 00:11:08;;;;;;;19.90;9.88;;;;;;;;;;6257586;28;20287;-71
2023/09/28 00:14:12;;;;;;;9.35;8.57;;;;;;;;;;6257617;28;20299;-71
2023/09/28 00:17:15;;;;;;;11.40;10.15;;;;;;;;;;6273113;28;20299;-72
2023/09/28 00:20:22;;;;;;;14.10;9.95;;;;;;;;;;6257672;28;20295;-70
2023/09/28 00:23:27;;;;;;;9.75;8.77;;;;;;;;;;6257533;28;20295;-72
2023/09/28 00:26:31;;;;;;;11.27;9.52;;;;;;;;;;6257792;28;20291;-71
2023/09/28 00:29:35;;;;;;;10.55;9.60;;;;;;;;;;6240349;28;20296;-71
2023/09/28 00:32:39;;;;;;;10.50;9.30;;;;;;;;;;6247926;28;20311;-72
2023/09/28 00:35:45;;;;;;;10.75;9.68;;;;;;;;;;6256998;28;20287;-72
2023/09/28 00:38:48;;;;;;;10.40;9.43;;;;;;;;;;6255791;28;20283;-76
2023/09/28 00:41:51;;;;;;;12.40;10.45;;;;;;;;;;6257560;28;20287;-71
2023/09/28 00:44:55;;;;;;;11.38;10.25;;;;;;;;;;6257409;28;20493;-71
2023/09/28 00:48:02;;;;;;;11.10;10.02;;;;;;;;;;6257098;28;20300;-70
2023/09/28 00:51:07;;;;;;;11.57;9.75;;;;;;;;;;6257496;28;20299;-70
2023/09/28 00:54:11;;;;;;;11.27;10.23;;;;;;;;;;6285028;28;20298;-70
2023/09/28 00:57:17;;;;;;;17.95;10.00;;;;;;;;;;6282081;28;20302;-70
2023/09/28 01:00:24;;;;;;;13.38;10.02;;;;;;;;;;6281595;28;20322;-70
2023/09/28 01:03:27;;;;;;;10.73;9.70;;;;;;;;;;6279662;28;20628;-71
2023/09/28 01:06:33;;;;;;;14.63;11.02;;;;;;;;;;6285041;28;20290;-71
2023/09/28 01:09:38;;;;;;;13.60;9.90;;;;;;;;;;6284547;28;20290;-70
2023/09/28 01:12:42;;;;;;;10.48;9.48;;;;;;;;;;6261627;28;20516;-72
2023/09/28 01:15:47;;;;;;;11.73;9.98;;;;;;;;;;6260545;28;20280;-71
2023/09/28 01:18:51;;;;;;;13.73;10.57;;;;;;;;;;6276708;28;20482;-72
2023/09/28 01:21:57;;;;;;;13.68;10.20;;;;;;;;;;6261631;28;20307;-71
2023/09/28 01:25:03;;;;;;;19.48;10.60;;;;;;;;;;6276479;28;20304;-70
2023/09/28 01:28:10;;;;;;;12.00;10.15;;;;;;;;;;6259224;28;20522;-70
2023/09/28 01:31:14;;;;;;;12.82;10.85;;;;;;;;;;6260111;28;20295;-71
2023/09/28 01:34:19;;;;;;;11.90;10.70;;;;;;;;;;6275613;28;20299;-70
2023/09/28 01:37:29;;;;;;;12.52;10.45;;;;;;;;;;6261348;28;20291;-73
2023/09/28 01:40:36;;;;;;;14.38;10.43;;;;;;;;;;6245244;28;20308;-71
2023/09/28 01:43:40;;;;;;;11.55;10.30;;;;;;;;;;6236102;28;20604;-70
2023/09/28 01:46:44;;;;;;;12.18;9.82;;;;;;;;;;6236301;28;20316;-71
2023/09/28 01:49:48;;;;;;;12.32;10.63;;;;;;;;;;6236123;28;20304;-71
2023/09/28 01:52:52;;;;;;;15.68;10.88;;;;;;;;;;6236247;28;20293;-70
2023/09/28 01:56:02;;;;;;;13.27;10.93;;;;;;;;;;6251980;28;20293;-71
2023/09/28 01:59:05;;;;;;;12.20;10.38;;;;;;;;;;6234404;28;20301;-72
2023/09/28 02:02:10;;;;;;;14.63;10.30;;;;;;;;;;6236234;28;20303;-73
2023/09/28 02:05:17;;;;;;;18.27;10.20;;;;;;;;;;6226224;28;20297;-69
2023/09/28 02:08:21;;;;;;;11.27;10.13;;;;;;;;;;6220146;28;20324;-72
2023/09/28 02:11:26;;;;;;;16.08;10.13;;;;;;;;;;6233855;28;20379;-71
2023/09/28 02:14:30;;;;;;;20.90;11.35;;;;;;;;;;6250481;28;20325;-72
2023/09/28 02:17:33;;;;;;;21.42;10.65;;;;;;;;;;6234054;28;20296;-71
2023/09/28 02:20:39;;;;;;;27.25;10.73;;;;;;;;;;6235414;28;20288;-69
2023/09/28 02:23:42;;;;;;;12.15;10.82;;;;;;;;;;6235461;28;20311;-71
2023/09/28 02:26:47;;;;;;;17.30;11.30;;;;;;;;;;6250734;28;20292;-72
2023/09/28 02:29:50;;;;;;;16.25;10.68;;;;;;;;;;6235018;28;20304;-71
2023/09/28 02:32:55;;;;;;;14.13;9.77;;;;;;;;;;6249921;28;20312;-71
2023/09/28 02:35:59;;;;;;;19.50;10.48;;;;;;;;;;6235394;28;20308;-70
2023/09/28 02:39:10;;;;;;;15.50;9.95;;;;;;;;;;6233068;28;20389;-72
2023/09/28 02:42:15;;;;;;;19.98;10.65;;;;;;;;;;6236095;28;20345;-71
2023/09/28 02:45:19;;;;;;;14.75;10.43;;;;;;;;;;6278343;28;20327;-70
2023/09/28 02:48:23;;;;;;;18.80;11.07;;;;;;;;;;6284624;28;20295;-71
2023/09/28 02:51:26;;;;;;;16.98;10.38;;;;;;;;;;6282849;28;20287;-70
2023/09/28 02:54:30;;;;;;;13.02;10.73;;;;;;;;;;6298669;28;20338;-70
2023/09/28 02:57:35;;;;;;;12.60;10.73;;;;;;;;;;6299388;28;20287;-70
2023/09/28 03:00:38;;;;;;;10.93;9.88;;;;;;;;;;6278551;28;20295;-70
2023/09/28 03:03:44;;;;;;;12.13;10.73;;;;;;;;;;6268234;28;20704;-70
2023/09/28 03:06:52;;;;;;;12.02;9.88;;;;;;;;;;6259259;28;20252;-71
2023/09/28 03:09:56;;;;;;;12.50;9.35;;;;;;;;;;6258687;28;20339;-70
2023/09/28 03:13:01;;;;;;;15.38;10.48;;;;;;;;;;6256475;28;20295;-71
2023/09/28 03:16:05;;;;;;;15.63;10.15;;;;;;;;;;6257393;28;20292;-70
2023/09/28 03:19:09;;;;;;;15.00;10.32;;;;;;;;;;6258504;28;20319;-71
2023/09/28 03:22:16;;;;;;;14.65;9.77;;;;;;;;;;6274238;28;20295;-70
2023/09/28 03:25:21;;;;;;;20.52;10.02;;;;;;;;;;6257954;28;20292;-70
2023/09/28 03:28:26;;;;;;;15.00;10.50;;;;;;;;;;6257480;28;20592;-70
2023/09/28 03:31:32;;;;;;;14.35;10.23;;;;;;;;;;6256365;28;20299;-70
2023/09/28 03:34:37;;;;;;;17.17;10.23;;;;;;;;;;6258073;28;20327;-71
2023/09/28 03:37:41;;;;;;;11.23;10.07;;;;;;;;;;6257860;28;20299;-70
2023/09/28 03:40:46;;;;;;;20.58;11.57;;;;;;;;;;6256532;28;20394;-70
2023/09/28 03:43:51;;;;;;;17.58;9.43;;;;;;;;;;6257920;28;20299;-70
2023/09/28 03:46:56;;;;;;;15.85;10.43;;;;;;;;;;6258284;28;20283;-71
2023/09/28 03:50:00;;;;;;;15.07;10.35;;;;;;;;;;6257766;28;20339;-70
2023/09/28 03:53:05;;;;;;;10.45;9.40;;;;;;;;;;6257817;28;20372;-70
2023/09/28 03:56:09;;;;;;;12.10;9.73;;;;;;;;;;6258077;28;20363;-72
2023/09/28 03:59:14;;;;;;;12.95;9.90;;;;;;;;;;6258640;28;20299;-72
2023/09/28 04:02:18;;;;;;;12.02;9.52;;;;;;;;;;6257589;28;20299;-73
2023/09/28 04:05:23;;;;;;;10.52;9.13;;;;;;;;;;6258090;28;20592;-71
2023/09/28 04:08:27;;;;;;;17.50;9.77;;;;;;;;;;6257329;28;20295;-72
2023/09/28 04:11:31;;;;;;;14.93;9.63;;;;;;;;;;6257849;28;20300;-71
2023/09/28 04:14:37;;;;;;;14.48;10.02;;;;;;;;;;6257341;28;20291;-70
2023/09/28 04:17:41;;;;;;;13.02;9.18;;;;;;;;;;6257069;28;20287;-70
2023/09/28 04:20:48;;;;;;;15.15;9.80;;;;;;;;;;6257464;28;20311;-70
2023/09/28 04:23:52;;;;;;;12.07;9.82;;;;;;;;;;6256948;28;20414;-70
2023/09/28 04:26:58;;;;;;;12.15;9.43;;;;;;;;;;6257388;28;20300;-70
2023/09/28 04:30:03;;;;;;;15.80;9.88;;;;;;;;;;6256939;28;20299;-69
2023/09/28 04:33:08;;;;;;;11.88;9.55;;;;;;;;;;6256790;28;20308;-69
2023/09/28 04:36:12;;;;;;;14.32;10.00;;;;;;;;;;6257702;28;20287;-70
2023/09/28 04:39:17;;;;;;;14.55;9.85;;;;;;;;;;6254828;28;20307;-69
2023/09/28 04:42:21;;;;;;;12.57;10.10;;;;;;;;;;6256893;28;20471;-72
2023/09/28 04:45:26;;;;;;;14.55;9.63;;;;;;;;;;6257754;28;20650;-71
2023/09/28 04:48:31;;;;;;;9.98;9.00;;;;;;;;;;6271759;28;20311;-69
2023/09/28 04:51:35;;;;;;;10.52;9.50;;;;;;;;;;6257266;28;20577;-70
2023/09/28 04:54:39;;;;;;;11.55;10.18;;;;;;;;;;6256017;28;20295;-70
2023/09/28 04:57:43;;;;;;;11.35;10.05;;;;;;;;;;6256512;28;21145;-72
2023/09/28 05:00:48;;;;;;;11.85;9.77;;;;;;;;;;6257242;28;20513;-69
2023/09/28 05:03:53;;;;;;;11.48;9.57;;;;;;;;;;6256502;28;20299;-70
2023/09/28 05:06:59;;;;;;;12.80;10.52;;;;;;;;;;6256964;28;20299;-69
2023/09/28 05:10:03;;;;;;;15.73;9.63;;;;;;;;;;6256068;28;20250;-69
2023/09/28 05:13:07;;;;;;;12.48;10.02;;;;;;;;;;6256482;28;20299;-69
2023/09/28 05:16:12;;;;;;;11.15;9.77;;;;;;;;;;6256870;28;20327;-70
2023/09/28 05:19:16;;;;;;;14.38;10.02;;;;;;;;;;6256281;28;20296;-71
2023/09/28 05:22:19;;;;;;;13.23;10.65;;;;;;;;;;6256253;28;20303;-71
2023/09/28 05:25:24;;;;;;;14.13;10.73;;;;;;;;;;6256683;28;20488;-70
2023/09/28 05:28:28;;;;;;;15.85;11.40;;;;;;;;;;6254491;28;20486;-72
2023/09/28 05:31:34;;;;;;;11.65;10.55;;;;;;;;;;6256687;28;20295;-72
2023/09/28 05:34:38;;;;;;;11.93;10.68;;;;;;;;;;6256077;28;20296;-72
2023/09/28 05:37:42;;;;;;;18.80;11.52;;;;;;;;;;6256185;28;20558;-70
2023/09/28 05:40:46;;;;;;;17.35;10.88;;;;;;;;;;6254567;28;20307;-70
2023/09/28 05:43:50;;;;;;;13.73;10.88;;;;;;;;;;6256156;28;20553;-70
2023/09/28 05:46:55;;;;;;;15.20;11.80;;;;;;;;;;6256426;28;20292;-70
2023/09/28 05:49:59;;;;;;;18.20;11.48;;;;;;;;;;6255764;28;20307;-71
2023/09/28 05:53:03;;;;;;;16.02;12.73;;;;;;;;;;6259671;28;20295;-72
2023/09/28 05:56:07;;;;;;;18.27;12.95;;;;;;;;;;6260761;28;20436;-71
2023/09/28 05:59:11;;;;;;;19.23;11.93;;;;;;;;;;6260178;28;20291;-71
2023/09/28 06:02:17;;;;;;;18.63;12.55;;;;;;;;;;6260695;28;20300;-72
2023/09/28 06:05:21;;;;;;;17.40;13.10;;;;;;;;;;6260320;28;20327;-71
2023/09/28 06:08:24;;;;;;;19.30;13.90;;;;;;;;;;6259803;28;20295;-71
2023/09/28 06:11:28;;;;;;;17.25;13.25;;;;;;;;;;6260572;28;20627;-70
2023/09/28 06:14:32;;;;;;;17.80;13.27;;;;;;;;;;6259901;28;20310;-72
2023/09/28 06:17:37;;;;;;;18.20;13.27;;;;;;;;;;6260020;28;20296;-71
2023/09/28 06:20:42;;;;;;;17.38;13.70;;;;;;;;;;6260237;28;20470;-72
2023/09/28 06:23:46;;;;;;;21.77;12.95;;;;;;;;;;6259769;28;20323;-73
2023/09/28 06:26:50;;;;;;;18.50;13.73;;;;;;;;;;6260279;28;20300;-72
2023/09/28 06:29:54;;;;;;;15.43;12.02;;;;;;;;;;6259518;28;20599;-71
2023/09/28 06:32:59;;;;;;;21.33;13.02;;;;;;;;;;6259117;28;20304;-70
2023/09/28 06:36:04;;;;;;;18.40;12.90;;;;;;;;;;6259933;28;20311;-70
2023/09/28 06:39:08;;;;;;;26.17;13.88;;;;;;;;;;6257553;28;20966;-72
2023/09/28 06:42:13;;;;;;;21.25;13.32;;;;;;;;;;6260145;28;20315;-71
2023/09/28 06:45:37;;;;;;;15.25;12.50;;;;;;;;;;6258554;28;20295;-70
2023/09/28 06:48:42;;;;;;;13.85;12.35;;;;;;;;;;6259342;28;20291;-70
2023/09/28 06:51:47;;;;;;;19.05;12.93;;;;;;;;;;6259533;28;20273;-71
2023/09/28 06:54:51;;;;;;;17.73;12.98;;;;;;;;;;6259531;28;20308;-70
2023/09/28 06:57:55;;;;;;;16.35;12.75;;;;;;;;;;6258900;28;20303;-71
2023/09/28 07:00:59;;;;;;;18.27;13.13;;;;;;;;;;6259686;28;20291;-71
2023/09/28 07:04:05;;;;;;;15.23;12.98;;;;;;;;;;6257913;28;20299;-73
2023/09/28 07:07:10;;;;;;;19.38;12.73;;;;;;;;;;6274353;28;20307;-72
2023/09/28 07:10:14;;;;;;;17.25;12.43;;;;;;;;;;6259195;28;20303;-71
2023/09/28 07:13:18;;;;;;;17.65;12.30;;;;;;;;;;6259301;28;20311;-71
2023/09/28 07:16:22;;;;;;;13.68;12.25;;;;;;;;;;6259368;28;20298;-71
2023/09/28 07:19:27;;;;;;;14.52;12.00;;;;;;;;;;6258925;28;20613;-71
2023/09/28 07:22:31;;;;;;;15.98;12.13;;;;;;;;;;6258560;28;20304;-70
2023/09/28 07:25:35;;;;;;;17.63;11.65;;;;;;;;;;6259456;28;20295;-72
2023/09/28 07:28:39;;;;;;;24.45;11.32;;;;;;;;;;6258808;28;20292;-70
2023/09/28 07:31:43;;;;;;;14.85;10.57;;;;;;;;;;6258948;28;20311;-69
2023/09/28 07:34:48;;;;;;;12.27;10.40;;;;;;;;;;6258929;28;20295;-71
2023/09/28 07:37:52;;;;;;;11.93;10.00;;;;;;;;;;6259082;28;20300;-71
2023/09/28 07:40:56;;;;;;;10.30;9.25;;;;;;;;;;6243054;28;20489;-71
2023/09/28 07:44:00;;;;;;;11.20;9.20;;;;;;;;;;6219954;28;20651;-70
2023/09/28 07:47:05;;;;;;;11.27;9.60;;;;;;;;;;6208482;28;20324;-70
2023/09/28 07:50:14;;;;;;;11.80;9.05;;;;;;;;;;6232426;28;20410;-70
2023/09/28 07:53:20;;;;;;;12.15;9.45;;;;;;;;;;6225586;28;20299;-70
2023/09/28 07:56:24;;;;;;;13.32;9.13;;;;;;;;;;6209656;28;20289;-70
2023/09/28 07:59:28;;;;;;;12.40;8.90;;;;;;;;;;6227096;28;20307;-69
2023/09/28 08:02:32;;;;;;;12.73;9.00;;;;;;;;;;6231854;28;20307;-70
2023/09/28 08:05:37;;;;;;;8.90;8.10;;;;;;;;;;6209416;28;20304;-72
2023/09/28 08:08:41;;;;;;;12.60;8.13;;;;;;;;;;6225662;28;20304;-70
2023/09/28 08:11:45;;;;;;;11.02;8.85;;;;;;;;;;6252438;28;20295;-71
2023/09/28 08:14:49;;;;;;;10.65;7.78;;;;;;;;;;6257331;28;20287;-70
2023/09/28 08:17:53;;;;;;;11.38;7.70;;;;;;;;;;6257460;28;20311;-70
2023/09/28 08:20:58;;;;;;;13.57;8.27;;;;;;;;;;6257940;28;20295;-71
2023/09/28 08:24:13;;;;;;;10.63;7.75;;;;;;;;;;6257402;28;20307;-70
2023/09/28 08:27:18;;;;;;;9.60;8.70;;;;;;;;;;6257789;28;20303;-70
2023/09/28 08:30:23;;;;;;;9.25;8.45;;;;;;;;;;6281636;28;20290;-71
2023/09/28 08:33:26;;;;;;;10.13;8.10;;;;;;;;;;6281560;28;20635;-69
2023/09/28 08:36:32;;;;;;;16.50;9.25;;;;;;;;;;6282136;28;20303;-70
2023/09/28 08:39:36;;;;;;;10.32;8.98;;;;;;;;;;6289322;28;20303;-70
2023/09/28 08:42:43;;;;;;;12.88;8.70;;;;;;;;;;6256817;28;20292;-71
2023/09/28 08:45:52;;;;;;;10.05;8.57;;;;;;;;;;6272434;28;20280;-71
2023/09/28 08:48:58;;;;;;;10.05;9.05;;;;;;;;;;6256696;28;20561;-70
2023/09/28 08:52:04;;;;;;;15.88;9.02;;;;;;;;;;6257250;28;20545;-70
2023/09/28 08:55:09;;;;;;;9.93;8.55;;;;;;;;;;6256876;28;20299;-71
2023/09/28 08:58:13;;;;;;;10.38;9.13;;;;;;;;;;6256962;28;20295;-70
2023/09/28 09:01:17;;;;;;;9.48;8.60;;;;;;;;;;6256971;28;20287;-72
2023/09/28 09:04:21;;;;;;;10.48;9.35;;;;;;;;;;6256793;28;20307;-70
2023/09/28 09:07:29;;;;;;;13.63;8.77;;;;;;;;;;6256629;28;20300;-70
2023/09/28 09:10:32;;;;;;;9.90;8.82;;;;;;;;;;6256978;28;20513;-70
2023/09/28 09:13:36;;;;;;;13.63;9.60;;;;;;;;;;6256612;28;20295;-71
2023/09/28 09:16:41;;;;;;;11.48;9.10;;;;;;;;;;6257095;28;20299;-70
2023/09/28 09:19:45;;;;;;;13.95;8.80;;;;;;;;;;6256919;28;20497;-70
2023/09/28 09:22:50;;;;;;;10.68;8.55;;;;;;;;;;6256558;28;20287;-71
2023/09/28 09:26:04;;;;;;;11.65;8.32;;;;;;;;;;6257629;28;20300;-70
2023/09/28 09:29:08;;;;;;;9.60;8.75;;;;;;;;;;6261346;28;20581;-70
2023/09/28 09:32:14;;;;;;;10.27;8.68;;;;;;;;;;6261532;28;20244;-70
2023/09/28 09:35:21;;;;;;;13.43;8.45;;;;;;;;;;6261098;28;20299;-70
2023/09/28 09:38:28;;;;;;;8.45;7.85;;;;;;;;;;6260998;28;20300;-69
2023/09/28 09:41:43;;;;;;;9.25;8.40;;;;;;;;;;6259841;28;20300;-69
2023/09/28 09:44:49;;;;;;;8.63;8.00;;;;;;;;;;6261397;28;20295;-70
2023/09/28 09:47:52;;;;;;;8.52;7.75;;;;;;;;;;6261580;28;20295;-71
2023/09/28 09:50:57;;;;;;;8.57;7.85;;;;;;;;;;6261563;28;20299;-69
2023/09/28 09:54:02;;;;;;;11.25;7.95;;;;;;;;;;6260603;28;20491;-70
2023/09/28 09:57:09;;;;;;;9.27;8.38;;;;;;;;;;6261061;28;20485;-69
2023/09/28 10:00:15;;;;;;;9.32;8.23;;;;;;;;;;6260585;28;20288;-71
2023/09/28 10:03:21;;;;;;;8.77;7.97;;;;;;;;;;6260389;28;20291;-70
2023/09/28 10:06:25;;;;;;;8.32;7.72;;;;;;;;;;6260828;28;20317;-71
2023/09/28 10:09:32;;;;;;;7.88;7.15;;;;;;;;;;6259905;28;20607;-71
2023/09/28 10:12:36;;;;;;;7.65;6.97;;;;;;;;;;6257134;28;20593;-71
2023/09/28 10:15:40;;;;;;;7.55;6.95;;;;;;;;;;6259100;28;20268;-70
2023/09/28 10:18:46;;;;;;;12.80;7.38;;;;;;;;;;6260061;28;20307;-70
2023/09/28 10:21:51;;;;;;;7.88;7.18;;;;;;;;;;6260486;28;20248;-71
2023/09/28 10:24:57;;;;;;;6.82;6.43;;;;;;;;;;6260059;28;20314;-70
2023/09/28 10:28:01;;;;;;;6.97;6.57;;;;;;;;;;6259914;28;20299;-71
2023/09/28 10:31:10;;;;;;;9.50;6.35;;;;;;;;;;6260219;28;20311;-71
2023/09/28 10:34:19;;;;;;;7.28;6.75;;;;;;;;;;6259382;28;20292;-71
2023/09/28 10:37:24;;;;;;;9.02;6.53;;;;;;;;;;6259102;28;20311;-71
2023/09/28 10:40:29;;;;;;;6.95;6.35;;;;;;;;;;6258087;28;20304;-71
2023/09/28 10:43:52;;;;;;;6.70;6.00;;;;;;;;;;6259725;28;20324;-70
2023/09/28 10:46:56;;;;;;;9.95;6.32;;;;;;;;;;6259713;28;20287;-71
2023/09/28 10:50:01;;;;;;;6.68;6.22;;;;;;;;;;6259657;28;20300;-71
2023/09/28 10:53:05;;;;;;;6.43;5.93;;;;;;;;;;6274511;28;20246;-70
2023/09/28 10:56:11;;;;;;;6.40;5.88;;;;;;;;;;6258018;28;20492;-70
2023/09/28 10:59:15;;;;;;;6.40;5.72;;;;;;;;;;6274257;28;20303;-71
2023/09/28 11:02:19;;;;;;;6.80;6.13;;;;;;;;;;6257462;28;20292;-70
2023/09/28 11:05:23;;;;;;;8.10;6.68;;;;;;;;;;6259504;28;20299;-71
2023/09/28 11:08:27;;;;;;;7.18;6.68;;;;;;;;;;6258982;28;20311;-70
2023/09/28 11:11:33;;;;;;;5.78;5.55;;;;;;;;;;6259281;28;20295;-71
2023/09/28 11:14:41;;;;;;;7.68;6.53;;;;;;;;;;6258807;28;20244;-71
2023/09/28 11:17:47;;;;;;;8.15;7.05;;;;;;;;;;6258785;28;20295;-71
2023/09/28 11:20:51;;;;;;;7.53;6.93;;;;;;;;;;6259105;28;20335;-70
2023/09/28 11:23:55;;;;;;;7.70;7.10;;;;;;;;;;6258644;28;20292;-70
2023/09/28 11:27:01;;;;;;;7.50;6.90;;;;;;;;;;6259143;28;20296;-70
2023/09/28 11:30:07;;;;;;;9.05;7.15;;;;;;;;;;6258673;28;20300;-69
2023/09/28 11:33:12;;;;;;;7.63;6.93;;;;;;;;;;6257966;28;20287;-71
2023/09/28 11:36:18;;;;;;;7.38;6.80;;;;;;;;;;6258893;28;20295;-70
2023/09/28 11:39:21;;;;;;;7.43;6.93;;;;;;;;;;6256618;28;20300;-69
2023/09/28 11:42:27;;;;;;;7.72;7.03;;;;;;;;;;6258363;28;20362;-70
2023/09/28 11:45:33;;;;;;;8.02;7.22;;;;;;;;;;6258560;28;20308;-70
2023/09/28 11:48:37;;;;;;;7.30;6.85;;;;;;;;;;6256454;28;20339;-73
2023/09/28 11:51:42;;;;;;;8.07;6.50;;;;;;;;;;6258194;28;20256;-70
2023/09/28 11:54:46;;;;;;;7.30;6.68;;;;;;;;;;6257887;28;20315;-70
2023/09/28 11:57:51;;;;;;;7.32;6.82;;;;;;;;;;6257652;28;20315;-71
2023/09/28 12:00:55;;;;;;;7.30;6.78;;;;;;;;;;6258189;28;20344;-70
2023/09/28 12:03:59;;;;;;;7.40;6.90;;;;;;;;;;6257686;28;20303;-70
2023/09/28 12:07:03;;;;;;;7.43;6.72;;;;;;;;;;6258233;28;20326;-70
2023/09/28 12:10:09;;;;;;;7.80;6.82;;;;;;;;;;6257617;28;20299;-71
2023/09/28 12:13:14;;;;;;;7.13;6.60;;;;;;;;;;6257492;28;20299;-70
2023/09/28 12:16:19;;;;;;;9.85;6.85;;;;;;;;;;6257969;28;20306;-69
2023/09/28 12:19:23;;;;;;;7.90;7.13;;;;;;;;;;6257607;28;20305;-71
2023/09/28 12:22:26;;;;;;;7.18;6.70;;;;;;;;;;6257622;28;20311;-73
2023/09/28 12:25:33;;;;;;;8.07;7.10;;;;;;;;;;6258368;28;20588;-72
2023/09/28 12:28:38;;;;;;;7.93;7.22;;;;;;;;;;6257689;28;20304;-69
2023/09/28 12:31:42;;;;;;;12.48;7.00;;;;;;;;;;6257912;28;20287;-71
2023/09/28 12:34:46;;;;;;;8.38;7.78;;;;;;;;;;6257387;28;20298;-70
2023/09/28 12:37:49;;;;;;;8.57;7.47;;;;;;;;;;6256860;28;20302;-70
2023/09/28 12:40:53;;;;;;;8.88;8.02;;;;;;;;;;6255607;28;20303;-70
2023/09/28 12:43:59;;;;;;;8.73;7.65;;;;;;;;;;6257296;28;20838;-71
2023/09/28 12:47:04;;;;;;;8.88;8.07;;;;;;;;;;6257199;28;20472;-72
2023/09/28 12:50:08;;;;;;;9.27;8.48;;;;;;;;;;6256623;28;20410;-71
2023/09/28 12:53:12;;;;;;;10.80;8.55;;;;;;;;;;6257107;28;20334;-72
2023/09/28 12:56:17;;;;;;;11.02;9.27;;;;;;;;;;6257801;28;20321;-72
2023/09/28 12:59:23;;;;;;;11.95;9.38;;;;;;;;;;6256717;28;20295;-72
2023/09/28 13:02:26;;;;;;;14.88;10.35;;;;;;;;;;6261669;28;20485;-72
2023/09/28 13:05:30;;;;;;;12.75;10.57;;;;;;;;;;6262291;28;20315;-71
2023/09/28 13:08:35;;;;;;;11.75;10.65;;;;;;;;;;6259927;28;20527;-72
2023/09/28 13:11:39;;;;;;;15.95;12.18;;;;;;;;;;6262051;28;20394;-72
2023/09/28 13:14:45;;;;;;;21.23;12.32;;;;;;;;;;6261649;28;20293;-74
2023/09/28 13:17:49;;;;;;;22.92;14.75;;;;;;;;;;6261900;28;20315;-73
2023/09/28 13:20:53;;;;;;;21.05;13.90;;;;;;;;;;6261934;28;20292;-71
2023/09/28 13:23:57;;;;;;;19.60;13.68;;;;;;;;;;6261545;28;20391;-71
2023/09/28 13:27:19;;;;;;;26.63;16.15;;;;;;;;;;6261740;28;20327;-71
2023/09/28 13:30:28;;;;;;;25.95;16.45;;;;;;;;;;6260160;28;20323;-71
2023/09/28 13:33:32;;;;;;;22.45;16.13;;;;;;;;;;6258973;28;20312;-71
2023/09/28 13:36:36;;;;;;;23.38;16.10;;;;;;;;;;6260735;28;20363;-71
2023/09/28 13:39:40;;;;;;;26.20;15.23;;;;;;;;;;6258713;28;20523;-70
2023/09/28 13:42:45;;;;;;;21.48;15.63;;;;;;;;;;6260983;28;20295;-70
2023/09/28 13:45:50;;;;;;;22.88;15.70;;;;;;;;;;6261106;28;20260;-70
2023/09/28 13:48:55;;;;;;;25.98;16.02;;;;;;;;;;6260974;28;20604;-71
2023/09/28 13:51:59;;;;;;;27.05;16.08;;;;;;;;;;6261145;28;20307;-69
2023/09/28 13:55:04;;;;;;;27.23;16.35;;;;;;;;;;6260824;28;20295;-71
2023/09/28 13:58:12;;;;;;;29.80;16.67;;;;;;;;;;6260496;28;20283;-72
2023/09/28 14:01:18;;;;;;;26.35;16.30;;;;;;;;;;6260865;28;20300;-70
2023/09/28 14:04:22;;;;;;;29.38;15.65;;;;;;;;;;6260505;28;20299;-71
2023/09/28 14:07:27;;;;;;;24.70;15.55;;;;;;;;;;6275574;28;20303;-70
2023/09/28 14:10:32;;;;;;;21.70;14.65;;;;;;;;;;6266558;28;20335;-69
2023/09/28 14:13:36;;;;;;;29.92;15.23;;;;;;;;;;6234931;28;20311;-71
2023/09/28 14:16:42;;;;;;;21.15;13.05;;;;;;;;;;6236201;28;20300;-71
2023/09/28 14:19:45;;;;;;;24.40;13.77;;;;;;;;;;6235738;28;20467;-69
2023/09/28 14:22:49;;;;;;;23.52;13.52;;;;;;;;;;6235361;28;20292;-69
2023/09/28 14:25:56;;;;;;;18.08;13.25;;;;;;;;;;6235589;28;20303;-70
2023/09/28 14:29:05;;;;;;;22.85;13.65;;;;;;;;;;6235300;28;20301;-70
2023/09/28 14:32:13;;;;;;;20.70;13.27;;;;;;;;;;6236286;28;20677;-70
2023/09/28 14:35:18;;;;;;;18.85;13.00;;;;;;;;;;6234742;28;20553;-70
2023/09/28 14:38:23;;;;;;;19.50;12.63;;;;;;;;;;6235133;28;20617;-69
2023/09/28 14:41:28;;;;;;;19.98;13.35;;;;;;;;;;6251922;28;20323;-69
2023/09/28 14:44:32;;;;;;;19.08;12.85;;;;;;;;;;6241297;28;20301;-70
2023/09/28 14:47:37;;;;;;;21.85;13.35;;;;;;;;;;6234430;28;20319;-70
2023/09/28 14:50:41;;;;;;;22.75;13.63;;;;;;;;;;6235139;28;20315;-69
2023/09/28 14:53:46;;;;;;;20.80;12.98;;;;;;;;;;6235105;28;20304;-69
2023/09/28 14:56:50;;;;;;;22.27;13.45;;;;;;;;;;6235009;28;20303;-69
2023/09/28 14:59:56;;;;;;;24.00;13.38;;;;;;;;;;6234898;28;20296;-68
2023/09/28 15:03:02;;;;;;;23.33;13.18;;;;;;;;;;6234611;28;20303;-70
2023/09/28 15:06:08;;;;;;;24.23;12.45;;;;;;;;;;6235210;28;20287;-70
2023/09/28 15:09:12;;;;;;;20.67;11.95;;;;;;;;;;6234756;28;20613;-71
2023/09/28 15:12:18;;;;;;;18.17;12.05;;;;;;;;;;6279271;28;20286;-69
2023/09/28 15:15:22;;;;;;;22.63;13.15;;;;;;;;;;6283070;28;20295;-69
2023/09/28 15:18:28;;;;;;;18.77;12.00;;;;;;;;;;6283356;28;20306;-70
2023/09/28 15:21:32;;;;;;;20.65;11.70;;;;;;;;;;6283610;28;20295;-70
2023/09/28 15:24:35;;;;;;;20.52;11.65;;;;;;;;;;6281456;28;20303;-70
2023/09/28 15:27:41;;;;;;;20.30;12.18;;;;;;;;;;6297928;28;20408;-69
2023/09/28 15:30:52;;;;;;;20.17;12.75;;;;;;;;;;6283503;28;20240;-70
2023/09/28 15:33:57;;;;;;;18.35;12.25;;;;;;;;;;6282446;28;20295;-71
2023/09/28 15:37:01;;;;;;;17.92;11.90;;;;;;;;;;6283256;28;20246;-70
2023/09/28 15:40:08;;;;;;;19.98;11.90;;;;;;;;;;6271939;28;20307;-70
2023/09/28 15:43:12;;;;;;;19.13;11.68;;;;;;;;;;6256857;28;20284;-72
2023/09/28 15:46:20;;;;;;;17.20;11.75;;;;;;;;;;6257858;28;20304;-69
2023/09/28 15:49:26;;;;;;;19.88;12.30;;;;;;;;;;6257747;28;20287;-71
2023/09/28 15:52:30;;;;;;;16.35;12.27;;;;;;;;;;6257753;28;20502;-70
2023/09/28 15:55:34;;;;;;;19.65;12.18;;;;;;;;;;6258107;28;20295;-70
2023/09/28 15:58:38;;;;;;;21.75;11.95;;;;;;;;;;6257715;28;20299;-69
2023/09/28 16:01:43;;;;;;;16.83;11.82;;;;;;;;;;6258639;28;20303;-70
2023/09/28 16:04:48;;;;;;;20.75;13.32;;;;;;;;;;6257620;28;20303;-69
2023/09/28 16:07:52;;;;;;;18.73;12.38;;;;;;;;;;6257216;28;20295;-70
2023/09/28 16:10:56;;;;;;;16.88;12.98;;;;;;;;;;6257644;28;20296;-71
2023/09/28 16:13:59;;;;;;;18.98;12.75;;;;;;;;;;6257333;28;20295;-69
2023/09/28 16:17:03;;;;;;;21.13;13.63;;;;;;;;;;6257509;28;20236;-70
2023/09/28 16:20:11;;;;;;;19.77;12.95;;;;;;;;;;6256997;28;20295;-71
2023/09/28 16:23:15;;;;;;;17.13;12.98;;;;;;;;;;6256987;28;20331;-71
2023/09/28 16:26:19;;;;;;;18.60;13.23;;;;;;;;;;6257390;28;20291;-71
2023/09/28 16:29:24;;;;;;;22.35;13.60;;;;;;;;;;6254983;28;20320;-71
2023/09/28 16:32:28;;;;;;;22.08;14.30;;;;;;;;;;6256710;28;20315;-69
2023/09/28 16:35:33;;;;;;;19.50;13.77;;;;;;;;;;6256869;28;20243;-73
2023/09/28 16:38:37;;;;;;;19.45;13.63;;;;;;;;;;6256757;28;20299;-70
2023/09/28 16:41:41;;;;;;;21.58;14.77;;;;;;;;;;6254994;28;20315;-70
2023/09/28 16:44:45;;;;;;;26.63;14.75;;;;;;;;;;6255852;28;20292;-70
2023/09/28 16:47:49;;;;;;;22.13;14.65;;;;;;;;;;6256223;28;20299;-70
2023/09/28 16:50:54;;;;;;;19.73;15.02;;;;;;;;;;6257039;28;20307;-70
2023/09/28 16:53:58;;;;;;;23.02;15.70;;;;;;;;;;6256402;28;20307;-69
2023/09/28 16:57:02;;;;;;;23.48;15.13;;;;;;;;;;6257264;28;20789;-69
2023/09/28 17:00:08;;;;;;;23.65;15.20;;;;;;;;;;6255404;28;20584;-71
2023/09/28 17:03:12;;;;;;;21.52;15.80;;;;;;;;;;6256515;28;20295;-71
2023/09/28 17:06:19;;;;;;;20.55;15.07;;;;;;;;;;6257594;28;20287;-70
2023/09/28 17:09:23;;;;;;;21.25;16.00;;;;;;;;;;6255977;28;20307;-71
2023/09/28 17:12:28;;;;;;;23.08;15.80;;;;;;;;;;6246872;28;20295;-69
2023/09/28 17:15:48;;;;;;;23.73;17.00;;;;;;;;;;6231654;28;20293;-71
2023/09/28 17:18:52;;;;;;;21.50;16.33;;;;;;;;;;6230130;28;20424;-71
2023/09/28 17:21:57;;;;;;;25.77;16.52;;;;;;;;;;6232396;28;20392;-70
2023/09/28 17:25:01;;;;;;;26.77;17.33;;;;;;;;;;6232115;28;20288;-71
2023/09/28 17:28:05;;;;;;;27.42;17.77;;;;;;;;;;6231518;28;20296;-71
2023/09/28 17:31:09;;;;;;;28.67;18.15;;;;;;;;;;6232030;28;20307;-71
2023/09/28 17:34:13;;;;;;;30.48;17.80;;;;;;;;;;6231489;28;20596;-71
2023/09/28 17:37:18;;;;;;;28.40;18.20;;;;;;;;;;6232226;28;20304;-70
2023/09/28 17:40:22;;;;;;;23.70;18.15;;;;;;;;;;6239875;28;20295;-71
2023/09/28 17:43:26;;;;;;;24.88;18.33;;;;;;;;;;6256092;28;20295;-70
2023/09/28 17:46:29;;;;;;;28.23;18.80;;;;;;;;;;6256652;28;20291;-70
2023/09/28 17:49:33;;;;;;;29.45;19.52;;;;;;;;;;6260826;28;20303;-70
2023/09/28 17:52:38;;;;;;;36.28;20.40;;;;;;;;;;6260808;28;20334;-72
2023/09/28 17:55:43;;;;;;;31.77;19.95;;;;;;;;;;6260892;28;20319;-70
2023/09/28 17:58:47;;;;;;;31.17;19.70;;;;;;;;;;6260598;28;20295;-70
2023/09/28 18:01:51;;;;;;;30.45;20.23;;;;;;;;;;6261015;28;20295;-71
2023/09/28 18:04:55;;;;;;;30.42;20.58;;;;;;;;;;6260515;28;20364;-71
2023/09/28 18:08:00;;;;;;;30.88;21.15;;;;;;;;;;6260322;28;20304;-70